Time;durP1;ratioP1;P1;durP2;ratioP2;P2;SDS_P1;SDS_P2;PMS_P1;PMS_P2;Temp;Humidity;BMP_temperature;BMP_pressure;BME280_temperature;BME280_humidity;BME280_pressure;Samples;Min_cycle;Max_cycle;Signal;HPM_P1;HPM_P2
2023/03/21 00:00:38;;;;;;;11.83;5.43;;;12.00;35.60;;;;;;5073903;28;20193;-78
2023/03/21 00:03:04;;;;;;;10.43;5.77;;;12.00;31.60;;;;;;5073807;28;20195;-78
2023/03/21 00:05:33;;;;;;;13.33;5.60;;;11.90;33.30;;;;;;5073909;28;20687;-78
2023/03/21 00:07:59;;;;;;;9.30;6.23;;;11.80;34.80;;;;;;5073849;28;20204;-77
2023/03/21 00:10:25;;;;;;;11.00;5.67;;;11.80;40.90;;;;;;5073840;28;20175;-77
2023/03/21 00:12:57;;;;;;;10.73;6.20;;;11.80;41.70;;;;;;5073622;28;20169;-78
2023/03/21 00:15:25;;;;;;;13.10;6.30;;;11.90;40.90;;;;;;5073696;28;20183;-78
2023/03/21 00:17:52;;;;;;;10.13;6.10;;;12.00;38.10;;;;;;5073675;28;20191;-78
2023/03/21 00:20:19;;;;;;;10.07;6.20;;;11.90;36.00;;;;;;5073915;28;20608;-77
2023/03/21 00:22:45;;;;;;;12.60;6.30;;;11.90;37.40;;;;;;5073770;28;20187;-78
2023/03/21 00:25:10;;;;;;;11.73;6.40;;;11.90;39.30;;;;;;5073575;28;20176;-78
2023/03/21 00:27:36;;;;;;;12.37;6.33;;;11.90;37.40;;;;;;5055536;28;20255;-78
2023/03/21 00:30:04;;;;;;;9.50;6.37;;;11.90;37.00;;;;;;5073853;28;20172;-79
2023/03/21 00:32:29;;;;;;;14.23;6.93;;;12.00;39.50;;;;;;5073380;28;20180;-78
2023/03/21 00:34:55;;;;;;;11.23;6.50;;;11.90;33.60;;;;;;5073322;28;20310;-77
2023/03/21 00:37:21;;;;;;;9.40;5.97;;;11.90;40.20;;;;;;5073589;28;20310;-78
2023/03/21 00:39:48;;;;;;;11.33;6.27;;;12.00;42.40;;;;;;5073621;28;20226;-78
2023/03/21 00:42:14;;;;;;;9.77;6.07;;;12.10;37.20;;;;;;5073613;28;20244;-77
2023/03/21 00:44:41;;;;;;;10.10;6.07;;;12.10;35.50;;;;;;5073304;28;20176;-76
2023/03/21 00:47:08;;;;;;;8.60;6.23;;;12.10;34.50;;;;;;5073249;28;20279;-78
2023/03/21 00:49:34;;;;;;;9.23;6.10;;;12.10;36.40;;;;;;5055854;28;20164;-77
2023/03/21 00:52:00;;;;;;;9.80;5.80;;;12.00;35.10;;;;;;5055790;28;20680;-78
2023/03/21 00:54:26;;;;;;;11.20;6.13;;;12.00;36.40;;;;;;5072180;28;20173;-76
2023/03/21 00:56:52;;;;;;;8.40;5.70;;;12.00;36.00;;;;;;5073283;28;20168;-77
2023/03/21 00:59:18;;;;;;;12.37;5.90;;;12.00;34.70;;;;;;5073208;28;20202;-77
2023/03/21 01:01:45;;;;;;;8.43;5.43;;;11.90;36.00;;;;;;5073085;28;20597;-78
2023/03/21 01:04:13;;;;;;;7.97;5.70;;;11.90;37.20;;;;;;5073084;28;20200;-76
2023/03/21 01:06:43;;;;;;;18.43;7.13;;;12.00;36.50;;;;;;5073192;28;20165;-77
2023/03/21 01:09:15;;;;;;;9.43;5.70;;;12.00;33.30;;;;;;5073120;28;20620;-78
2023/03/21 01:11:41;;;;;;;9.27;5.87;;;12.00;33.30;;;;;;5073147;28;20534;-78
2023/03/21 01:14:08;;;;;;;10.07;5.70;;;12.00;30.00;;;;;;5073242;28;20519;-76
2023/03/21 01:16:34;;;;;;;9.60;5.77;;;11.90;30.00;;;;;;5072512;28;20220;-77
2023/03/21 01:19:01;;;;;;;11.63;6.07;;;12.00;29.40;;;;;;5073116;28;20172;-77
2023/03/21 01:21:27;;;;;;;10.70;6.47;;;11.90;31.80;;;;;;5072839;28;20169;-77
2023/03/21 01:23:52;;;;;;;10.50;5.57;;;12.00;29.00;;;;;;5072888;28;20175;-78
2023/03/21 01:26:18;;;;;;;11.80;5.90;;;11.90;31.80;;;;;;5072996;28;20255;-77
2023/03/21 01:28:44;;;;;;;11.83;6.43;;;11.90;30.60;;;;;;5072966;28;20208;-76
2023/03/21 01:31:14;;;;;;;12.07;5.97;;;11.90;28.30;;;;;;5072638;28;20183;-77
2023/03/21 01:33:40;;;;;;;7.83;5.73;;;11.90;29.00;;;;;;5072832;28;20168;-77
2023/03/21 01:36:07;;;;;;;12.10;5.67;;;11.90;28.90;;;;;;5072803;28;20216;-76
2023/03/21 01:38:32;;;;;;;10.90;5.63;;;11.80;29.60;;;;;;5073020;28;20200;-77
2023/03/21 01:41:01;;;;;;;12.90;6.30;;;11.80;33.30;;;;;;5072849;28;20666;-77
2023/03/21 01:43:33;;;;;;;15.23;6.23;;;11.80;35.60;;;;;;5072840;28;20161;-78
2023/03/21 01:46:19;;;;;;;13.07;6.73;;;11.90;34.40;;;;;;5072420;28;20176;-76
2023/03/21 01:48:50;;;;;;;13.03;6.33;;;11.90;31.90;;;;;;5072607;28;20215;-78
2023/03/21 01:51:16;;;;;;;18.17;7.73;;;11.90;29.40;;;;;;5072865;28;20169;-78
2023/03/21 01:53:42;;;;;;;15.60;7.37;;;11.90;29.80;;;;;;5072795;28;20251;-76
2023/03/21 01:56:13;;;;;;;11.43;5.70;;;11.90;29.80;;;;;;5072674;28;20303;-76
2023/03/21 01:58:41;;;;;;;10.47;6.50;;;11.90;29.90;;;;;;5072609;28;20164;-78
2023/03/21 02:01:07;;;;;;;14.03;6.77;;;11.80;31.50;;;;;;5072658;28;20193;-76
2023/03/21 02:03:36;;;;;;;13.43;6.50;;;11.80;32.90;;;;;;5072709;28;20177;-77
2023/03/21 02:06:12;;;;;;;10.30;6.43;;;11.80;33.40;;;;;;5074936;28;20183;-77
2023/03/21 02:08:39;;;;;;;11.50;6.00;;;11.70;33.40;;;;;;5076219;28;20215;-78
2023/03/21 02:11:06;;;;;;;10.67;6.37;;;11.80;32.10;;;;;;5076400;28;20176;-77
2023/03/21 02:13:31;;;;;;;12.80;6.40;;;11.90;30.70;;;;;;5076046;28;20177;-77
2023/03/21 02:16:04;;;;;;;11.23;6.43;;;11.80;29.70;;;;;;5075865;28;20699;-77
2023/03/21 02:18:49;;;;;;;17.17;6.40;;;11.80;29.80;;;;;;5076144;28;20176;-77
2023/03/21 02:21:35;;;;;;;8.83;6.00;;;11.90;29.50;;;;;;5075948;28;20242;-77
2023/03/21 02:24:31;;;;;;;13.07;5.90;;;11.90;28.70;;;;;;5075764;28;20629;-77
2023/03/21 02:27:13;;;;;;;14.73;6.30;;;11.90;29.50;;;;;;5075889;28;20701;-77
2023/03/21 02:29:44;;;;;;;12.33;5.80;;;11.90;28.10;;;;;;5075506;28;20176;-77
2023/03/21 02:32:31;;;;;;;9.17;5.83;;;11.90;26.90;;;;;;5075771;28;20168;-77
2023/03/21 02:35:03;;;;;;;11.63;5.83;;;11.90;29.60;;;;;;5075658;28;20184;-77
2023/03/21 02:37:38;;;;;;;12.57;5.63;;;11.90;30.40;;;;;;5075844;28;20626;-77
2023/03/21 02:40:22;;;;;;;11.47;5.27;;;11.90;30.60;;;;;;5075690;28;20286;-77
2023/03/21 02:43:09;;;;;;;13.17;5.07;;;12.00;31.20;;;;;;5075170;28;20248;-77
2023/03/21 02:45:47;;;;;;;9.00;4.90;;;11.90;28.90;;;;;;5075513;28;20175;-77
2023/03/21 02:48:21;;;;;;;7.40;4.90;;;12.00;27.30;;;;;;5057548;28;20210;-77
2023/03/21 02:50:52;;;;;;;10.30;5.40;;;12.10;27.30;;;;;;5075561;28;20169;-77
2023/03/21 02:53:24;;;;;;;9.13;5.13;;;12.20;25.40;;;;;;5075087;28;20168;-77
2023/03/21 02:55:52;;;;;;;12.53;5.10;;;12.20;20.50;;;;;;5075319;28;20168;-77
2023/03/21 02:58:23;;;;;;;10.53;5.37;;;12.20;17.00;;;;;;5075035;28;20236;-77
2023/03/21 03:00:54;;;;;;;11.50;5.10;;;12.30;19.20;;;;;;5075333;28;20181;-77
2023/03/21 03:03:20;;;;;;;15.53;5.10;;;12.40;14.90;;;;;;5075236;28;20164;-77
2023/03/21 03:05:52;;;;;;;10.70;5.00;;;12.40;10.10;;;;;;5075021;28;20184;-77
2023/03/21 03:08:46;;;;;;;7.67;4.80;;;12.40;6.80;;;;;;5075340;28;20248;-77
2023/03/21 03:11:19;;;;;;;8.93;4.87;;;12.40;6.40;;;;;;5056947;28;20177;-77
2023/03/21 03:14:08;;;;;;;12.03;5.10;;;12.30;8.30;;;;;;5057073;28;20183;-77
2023/03/21 03:16:57;;;;;;;9.47;4.57;;;12.30;11.90;;;;;;5063429;28;20726;-77
2023/03/21 03:19:33;;;;;;;9.63;4.83;;;12.20;10.30;;;;;;5056944;28;20176;-77
2023/03/21 03:22:21;;;;;;;8.90;4.70;;;12.20;11.80;;;;;;5074823;28;20164;-77
2023/03/21 03:25:04;;;;;;;8.53;4.83;;;12.20;11.40;;;;;;5074073;28;20208;-77
2023/03/21 03:27:36;;;;;;;8.83;4.80;;;12.20;14.00;;;;;;5074472;28;20199;-77
2023/03/21 03:30:04;;;;;;;8.77;4.73;;;12.20;12.30;;;;;;5056988;28;20184;-76
2023/03/21 03:32:56;;;;;;;8.23;4.40;;;12.30;9.80;;;;;;5074613;28;20173;-77
2023/03/21 03:35:24;;;;;;;8.43;4.60;;;12.30;8.90;;;;;;5074474;28;20614;-76
2023/03/21 03:37:56;;;;;;;8.07;4.20;;;12.30;5.70;;;;;;5074632;28;20200;-77
2023/03/21 03:40:47;;;;;;;9.77;4.40;;;12.30;7.00;;;;;;5074315;28;20173;-77
2023/03/21 03:43:29;;;;;;;9.23;4.10;;;12.30;6.30;;;;;;5074128;28;20165;-77
2023/03/21 03:46:09;;;;;;;8.43;4.07;;;12.30;4.40;;;;;;5073848;28;20180;-76
2023/03/21 03:48:57;;;;;;;12.83;4.77;;;12.30;4.30;;;;;;5074447;28;20401;-78
2023/03/21 03:51:32;;;;;;;8.87;4.50;;;12.30;7.50;;;;;;5074423;28;20668;-77
2023/03/21 03:54:03;;;;;;;11.33;4.80;;;12.30;6.50;;;;;;5074157;28;20187;-77
2023/03/21 03:56:29;;;;;;;9.63;4.90;;;12.30;4.50;;;;;;5073760;28;20176;-77
2023/03/21 03:58:56;;;;;;;4.90;4.10;;;12.30;5.70;;;;;;5056126;28;20180;-77
2023/03/21 04:01:25;;;;;;;11.13;5.23;;;12.30;6.50;;;;;;5074228;28;20188;-77
2023/03/21 04:03:51;;;;;;;9.57;4.87;;;12.30;3.70;;;;;;5073925;28;20254;-77
2023/03/21 04:06:18;;;;;;;12.00;5.00;;;12.30;4.20;;;;;;5073118;28;20263;-77
2023/03/21 04:08:44;;;;;;;11.23;5.60;;;12.40;7.40;;;;;;5074057;28;20235;-77
2023/03/21 04:11:13;;;;;;;10.90;5.30;;;12.40;3.40;;;;;;5073703;28;20691;-77
2023/03/21 04:13:39;;;;;;;10.70;5.77;;;12.50;3.60;;;;;;5073860;28;20180;-76
2023/03/21 04:16:05;;;;;;;12.70;5.87;;;12.50;2.80;;;;;;5073389;28;20226;-78
2023/03/21 04:18:38;;;;;;;11.10;5.77;;;12.50;2.20;;;;;;5073598;28;20176;-76
2023/03/21 04:21:11;;;;;;;12.80;5.53;;;12.60;2.50;;;;;;5073123;28;20175;-77
2023/03/21 04:23:37;;;;;;;14.93;5.93;;;12.50;3.60;;;;;;5073129;28;20658;-77
2023/03/21 04:26:06;;;;;;;11.40;5.90;;;12.50;6.20;;;;;;5073412;28;20167;-77
2023/03/21 04:28:35;;;;;;;12.03;6.27;;;12.40;9.30;;;;;;5073360;28;20294;-77
2023/03/21 04:31:03;;;;;;;14.70;6.57;;;12.40;11.10;;;;;;5073520;28;20302;-77
2023/03/21 04:33:29;;;;;;;12.00;6.50;;;12.40;12.70;;;;;;5073026;28;20173;-77
2023/03/21 04:35:57;;;;;;;14.30;6.83;;;12.40;13.50;;;;;;5073374;28;20647;-77
2023/03/21 04:38:29;;;;;;;14.80;6.37;;;12.40;16.60;;;;;;5072905;28;20176;-77
2023/03/21 04:40:55;;;;;;;16.40;6.80;;;12.40;18.10;;;;;;5073263;28;20187;-77
2023/03/21 04:43:22;;;;;;;15.37;6.57;;;12.40;17.60;;;;;;5073265;28;20176;-77
2023/03/21 04:45:49;;;;;;;14.27;6.93;;;12.40;18.90;;;;;;5072942;28;20588;-76
2023/03/21 04:48:24;;;;;;;12.40;7.00;;;12.40;20.80;;;;;;5073034;28;20228;-77
2023/03/21 04:50:50;;;;;;;13.27;6.87;;;12.40;19.50;;;;;;5072848;28;20199;-76
2023/03/21 04:53:16;;;;;;;15.70;7.50;;;12.40;21.80;;;;;;5072238;28;20172;-77
2023/03/21 04:55:42;;;;;;;15.07;6.70;;;12.40;25.20;;;;;;5072487;28;20168;-77
2023/03/21 04:58:07;;;;;;;13.17;6.80;;;12.50;25.90;;;;;;5072776;28;20654;-78
2023/03/21 05:00:37;;;;;;;15.10;7.67;;;12.40;25.30;;;;;;5072888;28;20207;-76
2023/03/21 05:03:07;;;;;;;14.20;7.50;;;12.40;27.80;;;;;;5054523;28;20265;-77
2023/03/21 05:05:35;;;;;;;13.97;7.67;;;12.40;28.40;;;;;;5071944;28;20165;-76
2023/03/21 05:08:01;;;;;;;13.03;7.20;;;12.40;28.60;;;;;;5071721;28;20200;-77
2023/03/21 05:10:26;;;;;;;13.67;7.50;;;12.50;27.10;;;;;;5072226;28;20184;-77
2023/03/21 05:12:58;;;;;;;15.53;7.60;;;12.40;25.40;;;;;;5072737;28;20202;-77
2023/03/21 05:15:25;;;;;;;15.17;7.23;;;12.40;29.30;;;;;;5072247;28;20176;-76
2023/03/21 05:17:50;;;;;;;13.00;7.60;;;12.40;30.00;;;;;;5072129;28;20203;-77
2023/03/21 05:20:16;;;;;;;13.90;7.17;;;12.40;33.80;;;;;;5072176;28;20652;-78
2023/03/21 05:22:44;;;;;;;12.10;7.33;;;12.30;36.20;;;;;;5072117;28;20259;-78
2023/03/21 05:25:12;;;;;;;16.47;7.10;;;12.20;37.60;;;;;;5072186;28;20631;-77
2023/03/21 05:27:43;;;;;;;13.33;7.00;;;12.30;37.40;;;;;;5072334;28;20291;-78
2023/03/21 05:30:15;;;;;;;15.80;7.50;;;12.30;36.00;;;;;;5054152;28;20302;-77
2023/03/21 05:32:41;;;;;;;14.00;7.10;;;12.30;37.80;;;;;;5071883;28;20175;-79
2023/03/21 05:35:10;;;;;;;13.23;6.90;;;12.30;40.00;;;;;;5072443;28;20251;-78
2023/03/21 05:37:37;;;;;;;13.23;7.10;;;12.40;33.80;;;;;;5072036;28;20253;-77
2023/03/21 05:40:05;;;;;;;14.23;6.93;;;12.30;36.30;;;;;;5073310;28;20157;-77
2023/03/21 05:42:32;;;;;;;15.53;7.10;;;12.30;36.50;;;;;;5058243;28;20219;-78
2023/03/21 05:44:58;;;;;;;12.63;6.63;;;12.40;35.00;;;;;;5075878;28;20168;-76
2023/03/21 05:47:26;;;;;;;12.33;6.90;;;12.40;32.80;;;;;;5076109;28;20288;-77
2023/03/21 05:49:54;;;;;;;13.77;7.70;;;12.40;29.30;;;;;;5076155;28;20169;-77
2023/03/21 05:52:20;;;;;;;17.43;7.57;;;12.50;30.00;;;;;;5075159;28;20671;-77
2023/03/21 05:54:46;;;;;;;13.93;6.97;;;12.50;36.10;;;;;;5075623;28;20247;-75
2023/03/21 05:57:11;;;;;;;11.90;6.87;;;12.40;46.50;;;;;;5076077;28;20176;-77
2023/03/21 05:59:37;;;;;;;12.83;7.83;;;12.40;56.00;;;;;;5075249;28;20604;-75
2023/03/21 06:02:03;;;;;;;10.83;7.43;;;12.20;64.50;;;;;;5075788;28;20184;-76
2023/03/21 06:04:49;;;;;;;14.33;7.80;;;12.10;73.60;;;;;;5075637;28;20672;-77
2023/03/21 06:07:14;;;;;;;14.47;7.27;;;12.00;88.20;;;;;;5074660;28;20212;-75
2023/03/21 06:09:43;;;;;;;13.87;7.47;;;11.80;95.00;;;;;;5057635;28;20172;-77
2023/03/21 06:12:10;;;;;;;14.57;7.20;;;11.70;99.90;;;;;;5074913;28;20176;-78
2023/03/21 06:14:38;;;;;;;12.60;7.47;;;11.60;99.90;;;;;;5075406;28;20274;-77
2023/03/21 06:17:04;;;;;;;17.73;7.40;;;11.50;99.90;;;;;;5075054;28;20256;-77
2023/03/21 06:19:30;;;;;;;14.70;7.90;;;11.50;99.90;;;;;;5056703;28;20540;-78
2023/03/21 06:21:56;;;;;;;14.30;7.70;;;11.50;99.90;;;;;;5075094;28;20172;-76
2023/03/21 06:24:21;;;;;;;12.17;7.73;;;11.40;99.90;;;;;;5074930;28;20172;-76
2023/03/21 06:26:47;;;;;;;18.63;8.47;;;11.40;99.90;;;;;;5075310;28;20295;-78
2023/03/21 06:29:16;;;;;;;16.07;7.50;;;11.40;99.90;;;;;;5075126;28;20175;-76
2023/03/21 06:31:42;;;;;;;14.60;7.77;;;11.30;99.90;;;;;;5075663;28;20161;-78
2023/03/21 06:34:09;;;;;;;15.97;7.83;;;11.30;99.90;;;;;;5074575;28;20165;-77
2023/03/21 06:36:35;;;;;;;13.80;7.63;;;11.30;99.90;;;;;;5075232;28;20335;-77
2023/03/21 06:39:01;;;;;;;12.67;7.67;;;11.30;99.90;;;;;;5074827;28;20526;-78
2023/03/21 06:41:26;;;;;;;16.00;8.30;;;11.30;99.90;;;;;;5074144;28;20247;-77
2023/03/21 06:43:52;;;;;;;14.63;7.83;;;11.30;99.90;;;;;;5057258;28;20173;-77
2023/03/21 06:46:18;;;;;;;11.93;7.00;;;11.30;99.90;;;;;;5074427;28;20168;-77
2023/03/21 06:48:43;;;;;;;13.60;6.93;;;11.30;99.90;;;;;;5073967;28;20212;-77
2023/03/21 06:51:13;;;;;;;13.17;6.70;;;11.40;99.90;;;;;;5073778;28;20255;-78
2023/03/21 06:53:45;;;;;;;13.03;6.80;;;11.40;99.90;;;;;;5074211;28;20169;-76
2023/03/21 06:56:12;;;;;;;16.87;7.50;;;11.40;99.90;;;;;;5074070;28;20164;-79
2023/03/21 06:58:38;;;;;;;10.20;6.53;;;11.40;99.90;;;;;;5073960;28;20180;-77
2023/03/21 07:01:05;;;;;;;19.30;7.20;;;11.40;96.30;;;;;;5073659;28;20237;-77
2023/03/21 07:03:31;;;;;;;10.90;6.40;;;11.40;94.40;;;;;;5073781;28;20214;-77
2023/03/21 07:05:57;;;;;;;10.57;6.67;;;11.40;93.70;;;;;;5072441;28;20192;-78
2023/03/21 07:08:23;;;;;;;13.37;5.70;;;11.50;94.90;;;;;;5073948;28;20212;-77
2023/03/21 07:10:54;;;;;;;10.00;4.83;;;11.50;93.30;;;;;;5073885;28;20176;-77
2023/03/21 07:13:20;;;;;;;7.93;5.40;;;11.50;85.80;;;;;;5074172;28;20177;-78
2023/03/21 07:15:45;;;;;;;11.37;5.40;;;11.70;85.20;;;;;;5072927;28;20301;-78
2023/03/21 07:18:11;;;;;;;13.13;5.17;;;11.60;65.10;;;;;;5073961;28;20251;-78
2023/03/21 07:20:39;;;;;;;7.80;4.90;;;11.60;70.70;;;;;;5073274;28;20246;-77
2023/03/21 07:23:05;;;;;;;11.60;4.50;;;11.60;54.30;;;;;;5073456;28;20215;-76
2023/03/21 07:25:32;;;;;;;9.73;4.60;;;11.70;56.10;;;;;;5073391;28;20156;-76
2023/03/21 07:27:57;;;;;;;11.07;5.07;;;11.80;54.20;;;;;;5073662;28;20208;-76
2023/03/21 07:30:23;;;;;;;10.03;4.83;;;11.80;55.20;;;;;;5072827;28;20172;-76
2023/03/21 07:32:52;;;;;;;7.47;4.50;;;12.00;52.50;;;;;;5073027;28;20536;-77
2023/03/21 07:35:18;;;;;;;11.73;4.83;;;12.10;44.90;;;;;;5054596;28;20636;-75
2023/03/21 07:37:43;;;;;;;8.57;4.40;;;12.30;40.70;;;;;;5073757;28;20203;-77
2023/03/21 07:40:11;;;;;;;7.60;3.63;;;12.40;35.00;;;;;;5073441;28;20165;-76
2023/03/21 07:42:39;;;;;;;6.73;3.83;;;12.50;21.60;;;;;;5054859;28;20303;-77
2023/03/21 07:45:06;;;;;;;8.37;4.60;;;12.70;15.00;;;;;;5073341;28;20169;-78
2023/03/21 07:47:32;;;;;;;13.27;5.13;;;12.80;14.20;;;;;;5054509;28;20291;-76
2023/03/21 07:49:58;;;;;;;12.60;4.63;;;12.90;7.70;;;;;;5073146;28;20555;-78
2023/03/21 07:52:24;;;;;;;18.03;3.73;;;12.80;12.10;;;;;;5072564;28;20261;-77
2023/03/21 07:54:49;;;;;;;10.77;4.20;;;12.70;9.00;;;;;;5073298;28;20173;-77
2023/03/21 07:57:16;;;;;;;8.77;4.17;;;12.70;15.60;;;;;;5072827;28;20177;-77
2023/03/21 07:59:42;;;;;;;6.53;3.67;;;12.80;13.00;;;;;;5072277;28;20196;-78
2023/03/21 08:02:16;;;;;;;9.93;4.20;;;12.70;12.60;;;;;;5072522;28;20171;-76
2023/03/21 08:04:42;;;;;;;6.53;4.10;;;12.60;12.50;;;;;;5072549;28;20164;-76
2023/03/21 08:07:11;;;;;;;11.73;4.17;;;12.50;18.50;;;;;;5055066;28;20181;-77
2023/03/21 08:09:37;;;;;;;9.40;4.23;;;12.50;19.50;;;;;;5073158;28;20608;-77
2023/03/21 08:12:04;;;;;;;5.83;3.63;;;12.40;18.50;;;;;;5068537;28;20229;-75
2023/03/21 08:14:30;;;;;;;7.67;3.60;;;12.50;21.50;;;;;;5052587;28;20220;-75
2023/03/21 08:16:56;;;;;;;8.27;3.93;;;12.60;23.60;;;;;;5071012;28;20260;-74
2023/03/21 08:19:21;;;;;;;7.90;4.30;;;12.60;15.90;;;;;;5059252;28;20663;-74
2023/03/21 08:21:48;;;;;;;6.40;4.10;;;12.60;18.20;;;;;;5031829;28;20177;-74
2023/03/21 08:24:14;;;;;;;13.97;5.17;;;12.60;15.90;;;;;;5061381;28;20524;-74
2023/03/21 08:26:40;;;;;;;9.17;4.33;;;12.60;22.50;;;;;;5063537;28;20180;-73
2023/03/21 08:29:06;;;;;;;8.17;4.27;;;12.60;17.20;;;;;;5069723;28;20219;-71
2023/03/21 08:31:32;;;;;;;12.37;5.13;;;12.60;20.20;;;;;;5070269;28;20187;-71
2023/03/21 08:33:57;;;;;;;8.23;4.87;;;12.70;23.50;;;;;;5049927;28;20555;-73
2023/03/21 08:36:26;;;;;;;5.87;4.70;;;12.60;22.10;;;;;;5070573;28;20172;-72
2023/03/21 08:39:03;;;;;;;10.00;4.30;;;12.70;22.00;;;;;;5069390;28;20695;-73
2023/03/21 08:41:28;;;;;;;11.57;5.00;;;12.70;21.70;;;;;;5067983;28;20263;-75
2023/03/21 08:43:54;;;;;;;9.93;4.70;;;12.70;17.70;;;;;;5084006;28;20536;-72
2023/03/21 08:46:20;;;;;;;10.83;4.80;;;12.80;14.80;;;;;;5072336;28;21348;-70
2023/03/21 08:48:45;;;;;;;9.13;4.73;;;12.90;17.00;;;;;;5082743;28;20643;-75
2023/03/21 08:51:11;;;;;;;8.83;5.10;;;12.90;8.70;;;;;;5070438;28;20188;-74
2023/03/21 08:53:40;;;;;;;9.43;4.90;;;13.00;5.90;;;;;;5064825;28;20192;-74
2023/03/21 08:56:06;;;;;;;11.43;5.40;;;13.00;1.60;;;;;;5065281;28;20172;-73
2023/03/21 08:58:32;;;;;;;11.73;5.10;;;13.10;1.00;;;;;;5050541;28;20194;-72
2023/03/21 09:00:58;;;;;;;12.57;4.97;;;13.10;1.00;;;;;;5068445;28;20283;-72
2023/03/21 09:03:26;;;;;;;8.63;4.80;;;13.30;1.00;;;;;;5046775;28;20184;-75
2023/03/21 09:05:57;;;;;;;9.03;4.30;;;13.70;1.00;;;;;;5068928;28;20175;-73
2023/03/21 09:08:26;;;;;;;9.00;4.43;;;14.10;1.00;;;;;;5070175;28;20215;-74
2023/03/21 09:10:53;;;;;;;12.77;4.97;;;14.20;1.00;;;;;;5072813;28;20298;-73
2023/03/21 09:13:19;;;;;;;9.13;3.97;;;14.40;1.00;;;;;;5071726;28;20172;-74
2023/03/21 09:15:51;;;;;;;11.40;4.80;;;14.20;1.00;;;;;;5070979;28;20231;-74
2023/03/21 09:18:20;;;;;;;13.63;4.40;;;14.10;1.00;;;;;;5068561;28;20180;-75
2023/03/21 09:20:47;;;;;;;9.40;4.20;;;14.00;1.00;;;;;;5066029;28;20173;-73
2023/03/21 09:23:13;;;;;;;12.43;4.40;;;13.80;1.00;;;;;;5065717;28;20583;-76
2023/03/21 09:25:41;;;;;;;12.40;4.07;;;13.80;1.00;;;;;;5063065;28;20184;-70
2023/03/21 09:28:07;;;;;;;7.27;4.60;;;13.70;1.00;;;;;;5072382;28;20231;-73
2023/03/21 09:30:34;;;;;;;15.67;5.00;;;13.60;1.00;;;;;;5080621;28;20300;-72
2023/03/21 09:33:02;;;;;;;7.60;4.70;;;13.60;1.00;;;;;;5074805;28;20254;-72
2023/03/21 09:35:28;;;;;;;18.93;5.00;;;13.50;1.00;;;;;;5063332;28;20271;-73
2023/03/21 09:37:58;;;;;;;9.50;4.10;;;13.50;1.00;;;;;;5067493;28;20177;-73
2023/03/21 09:40:48;;;;;;;17.33;5.10;;;13.60;1.00;;;;;;5070835;28;20208;-75
2023/03/21 09:43:34;;;;;;;12.93;3.93;;;13.50;1.00;;;;;;5083962;28;20248;-71
2023/03/21 09:46:26;;;;;;;11.87;4.23;;;13.50;1.00;;;;;;5084104;28;20164;-74
2023/03/21 09:49:31;;;;;;;11.83;4.37;;;13.70;1.00;;;;;;5028181;28;20255;-75
2023/03/21 09:52:12;;;;;;;8.73;4.20;;;13.80;1.00;;;;;;5069647;28;20191;-71
2023/03/21 09:54:41;;;;;;;11.77;4.13;;;14.00;1.00;;;;;;5071431;28;20652;-72
2023/03/21 09:57:28;;;;;;;6.90;4.00;;;14.10;1.00;;;;;;5048048;28;20177;-73
2023/03/21 10:00:06;;;;;;;12.83;4.00;;;14.10;1.00;;;;;;5045144;28;20681;-71
2023/03/21 10:02:45;;;;;;;12.70;4.20;;;14.20;1.00;;;;;;5051809;28;20271;-72
2023/03/21 10:05:22;;;;;;;10.53;4.50;;;14.30;1.00;;;;;;5047033;28;20541;-72
2023/03/21 10:07:57;;;;;;;10.10;4.27;;;14.20;1.00;;;;;;5070550;28;20200;-74
2023/03/21 10:10:31;;;;;;;12.17;4.60;;;14.20;1.00;;;;;;5067672;28;20630;-72
2023/03/21 10:12:57;;;;;;;9.80;4.27;;;14.10;1.00;;;;;;5053568;28;20277;-75
2023/03/21 10:15:25;;;;;;;6.10;4.07;;;14.20;1.00;;;;;;5058660;28;20292;-73
2023/03/21 10:17:59;;;;;;;9.80;4.40;;;14.30;1.00;;;;;;5072089;28;20284;-74
2023/03/21 10:20:30;;;;;;;8.50;4.20;;;14.40;1.00;;;;;;5087948;28;20717;-74
2023/03/21 10:22:59;;;;;;;10.80;4.40;;;14.60;1.00;;;;;;5069331;28;20210;-75
2023/03/21 10:25:50;;;;;;;14.40;4.40;;;14.80;1.00;;;;;;5067653;28;20188;-72
2023/03/21 10:28:20;;;;;;;9.97;4.03;;;14.90;1.00;;;;;;5072806;28;20220;-72
2023/03/21 10:30:54;;;;;;;10.73;4.37;;;15.00;1.00;;;;;;5080901;28;20173;-72
2023/03/21 10:33:24;;;;;;;16.67;5.53;;;15.00;1.00;;;;;;5073489;28;20271;-73
2023/03/21 10:36:00;;;;;;;12.43;4.27;;;15.10;1.00;;;;;;5076548;28;20310;-72
2023/03/21 10:38:26;;;;;;;14.23;4.50;;;15.20;1.00;;;;;;5069786;28;20646;-70
2023/03/21 10:40:53;;;;;;;11.57;4.17;;;15.50;1.00;;;;;;5071198;28;20185;-71
2023/03/21 10:43:24;;;;;;;8.13;4.13;;;15.90;1.00;;;;;;5076892;28;20275;-71
2023/03/21 10:45:51;;;;;;;5.70;4.03;;;16.40;1.00;;;;;;5053799;28;20256;-74
2023/03/21 10:48:17;;;;;;;11.60;4.27;;;16.60;1.00;;;;;;5070342;28;20353;-73
2023/03/21 10:50:45;;;;;;;7.97;3.73;;;16.90;99.90;;;;;;5074312;28;20263;-72
2023/03/21 10:53:33;;;;;;;11.27;4.25;;;16.40;1.00;;;;;;5069876;28;20207;-73
2023/03/21 10:56:00;;;;;;;9.93;4.40;;;16.30;1.00;;;;;;5065504;28;20212;-73
2023/03/21 10:58:33;;;;;;;8.35;4.75;;;16.20;1.00;;;;;;5071357;28;20174;-73
2023/03/21 11:01:06;;;;;;;10.60;4.87;;;16.00;1.00;;;;;;5069969;28;20228;-73
2023/03/21 11:03:45;;;;;;;10.93;4.83;;;16.20;1.00;;;;;;5071073;28;20227;-72
2023/03/21 11:06:16;;;;;;;8.33;4.23;;;16.30;1.00;;;;;;5072903;28;20188;-72
2023/03/21 11:08:48;;;;;;;9.32;4.65;;;16.50;1.00;;;;;;5064745;28;20208;-72
2023/03/21 11:11:51;;;;;;;9.63;5.13;;;16.90;1.00;;;;;;5074019;28;20220;-70
2023/03/21 11:14:45;;;;;;;10.27;4.60;;;16.70;1.00;;;;;;5006487;28;20197;-72
2023/03/21 11:17:16;;;;;;;6.00;4.75;;;17.20;1.00;;;;;;5001853;28;20219;-74
2023/03/21 11:19:54;;;;;;;6.93;4.30;;;17.30;99.90;;;;;;4983412;28;20374;-76
2023/03/21 11:22:22;;;;;;;9.93;4.68;;;17.00;1.00;;;;;;4972995;28;20198;-73
2023/03/21 11:24:51;;;;;;;7.95;4.60;;;16.80;1.00;;;;;;4995118;28;20340;-72
2023/03/21 11:27:17;;;;;;;8.45;4.55;;;16.90;1.00;;;;;;4988793;28;20184;-74
2023/03/21 11:29:50;;;;;;;6.28;4.00;;;16.60;1.00;;;;;;5001361;28;20178;-72
2023/03/21 11:32:24;;;;;;;6.00;4.40;;;16.30;1.00;;;;;;4994388;28;20187;-75
2023/03/21 11:34:56;;;;;;;9.32;4.88;;;16.30;1.00;;;;;;4979758;28;20193;-74
2023/03/21 11:37:49;;;;;;;7.20;4.47;;;16.30;1.00;;;;;;4988216;28;20183;-73
2023/03/21 11:40:22;;;;;;;12.60;6.15;;;16.80;1.00;;;;;;4975058;28;20229;-73
2023/03/21 11:42:50;;;;;;;4.43;3.60;;;17.50;99.90;;;;;;4990492;28;20180;-74
2023/03/21 11:45:27;;;;;;;7.32;4.32;;;17.70;1.00;;;;;;4989872;28;20262;-74
2023/03/21 11:47:59;;;;;;;8.45;6.82;;;17.50;1.00;;;;;;5007405;28;20714;-73
2023/03/21 11:50:44;;;;;;;10.15;4.93;;;18.00;99.90;;;;;;5048814;28;20173;-75
2023/03/21 11:53:25;;;;;;;5.40;4.47;;;18.20;1.00;;;;;;5050113;28;20199;-75
2023/03/21 11:56:16;;;;;;;6.50;4.07;;;18.60;99.90;;;;;;5046424;28;20181;-75
2023/03/21 11:59:09;;;;;;;5.57;4.00;;;18.70;1.00;;;;;;5050807;28;20193;-74
2023/03/21 12:02:14;;;;;;;7.10;5.07;;;18.30;1.00;;;;;;5038433;28;20192;-75
2023/03/21 12:05:18;;;;;;;5.43;4.90;;;18.30;99.90;;;;;;5032162;28;20266;-77
2023/03/21 12:07:44;;;;;;;6.20;4.60;;;18.30;1.00;;;;;;4989037;28;20305;-78
2023/03/21 12:10:41;;;;;;;6.45;4.45;;;18.10;91.00;;;;;;5032707;28;20566;-75
2023/03/21 12:13:26;;;;;;;12.00;8.48;;;17.80;99.90;;;;;;5042400;28;20185;-76
2023/03/21 12:16:16;;;;;;;9.25;5.03;;;17.50;99.90;;;;;;5044983;28;20321;-76
2023/03/21 12:19:09;;;;;;;5.82;4.50;;;17.20;99.90;;;;;;5047699;28;20172;-75
2023/03/21 12:22:16;;;;;;;8.48;4.90;;;16.70;1.00;;;;;;5061361;28;20259;-76
2023/03/21 12:24:56;;;;;;;8.23;4.70;;;16.60;1.00;;;;;;5029895;28;20275;-76
2023/03/21 12:28:00;;;;;;;10.18;5.03;;;16.50;1.00;;;;;;5052847;28;20697;-78
2023/03/21 12:30:37;;;;;;;9.88;4.50;;;16.60;1.00;;;;;;5008524;28;20240;-76
2023/03/21 12:33:24;;;;;;;6.60;4.63;;;16.70;1.00;;;;;;5068547;28;20183;-74
2023/03/21 12:36:13;;;;;;;7.10;4.70;;;17.20;1.00;;;;;;5069284;28;20692;-74
2023/03/21 12:38:58;;;;;;;7.57;4.60;;;16.90;99.90;;;;;;5072047;28;20628;-75
2023/03/21 12:41:43;;;;;;;6.72;4.80;;;16.90;1.00;;;;;;5078489;28;20176;-74
2023/03/21 12:44:15;;;;;;;6.03;4.93;;;16.70;1.00;;;;;;5075391;28;20217;-75
2023/03/21 12:46:54;;;;;;;7.30;5.00;;;16.70;1.00;;;;;;5070247;28;20660;-73
2023/03/21 12:49:36;;;;;;;9.27;5.63;;;17.00;1.00;;;;;;5061247;28;20244;-75
2023/03/21 12:52:07;;;;;;;5.15;4.57;;;17.30;1.00;;;;;;5069395;28;20176;-75
2023/03/21 12:54:38;;;;;;;9.57;4.45;;;17.30;1.00;;;;;;5048211;28;20683;-75
2023/03/21 12:57:10;;;;;;;7.55;4.50;;;16.90;1.00;;;;;;5058291;28;20187;-77
2023/03/21 12:59:47;;;;;;;5.72;4.15;;;17.00;1.00;;;;;;5078690;28;20192;-75
2023/03/21 13:02:30;;;;;;;4.28;3.88;;;16.80;1.00;;;;;;5067978;28;20215;-74
2023/03/21 13:05:17;;;;;;;6.53;4.28;;;16.70;1.00;;;;;;5075994;28;20210;-75
2023/03/21 13:07:47;;;;;;;7.70;6.93;;;16.60;1.00;;;;;;5070395;28;20291;-73